Time;durP1;ratioP1;P1;durP2;ratioP2;P2;SDS_P1;SDS_P2;PMS_P1;PMS_P2;Temp;Humidity;BMP_temperature;BMP_pressure;BME280_temperature;BME280_humidity;BME280_pressure;Samples;Min_cycle;Max_cycle;Signal;HPM_P1;HPM_P2
2022/01/18 00:00:50;;;;;;;4.72;3.33;;;26.20;99.90;;;;;;4967043;28;20061;-75
2022/01/18 00:03:17;;;;;;;5.10;3.20;;;26.00;99.90;;;;;;4971179;28;20027;-74
2022/01/18 00:05:48;;;;;;;6.97;4.55;;;26.10;99.90;;;;;;4974471;28;20034;-74
2022/01/18 00:08:16;;;;;;;5.30;3.20;;;26.00;99.90;;;;;;4969178;28;20031;-74
2022/01/18 00:10:45;;;;;;;6.47;4.78;;;26.10;99.90;;;;;;4979209;28;20473;-74
2022/01/18 00:13:35;;;;;;;7.60;4.85;;;26.00;99.90;;;;;;4986140;28;20487;-74
2022/01/18 00:17:00;;;;;;;6.53;4.85;;;26.00;99.90;;;;;;4982132;28;20062;-75
2022/01/18 00:18:51;;;;;;;10.25;5.13;;;26.00;99.90;;;;;;4978902;28;20046;-75
2022/01/18 00:21:28;;;;;;;7.05;3.85;;;26.00;99.90;;;;;;4971899;28;20046;-73
2022/01/18 00:23:57;;;;;;;6.75;3.85;;;26.10;99.90;;;;;;4976568;28;20422;-74
2022/01/18 00:26:29;;;;;;;7.05;4.00;;;26.30;99.90;;;;;;4979376;28;20105;-74
2022/01/18 00:29:03;;;;;;;7.07;3.88;;;26.50;99.90;;;;;;4979154;28;20121;-75
2022/01/18 00:31:46;;;;;;;5.18;3.38;;;26.70;99.90;;;;;;4980009;28;20023;-75
2022/01/18 00:34:21;;;;;;;9.32;3.85;;;26.80;99.90;;;;;;4984254;28;20030;-74
2022/01/18 00:39:16;;;;;;;4.65;2.88;;;26.80;99.90;;;;;;4971574;28;20030;-74
2022/01/18 00:41:44;;;;;;;5.57;2.72;;;26.80;99.90;;;;;;4966847;28;20035;-75
2022/01/18 00:44:12;;;;;;;5.30;2.97;;;26.80;99.90;;;;;;4964238;28;20512;-76
2022/01/18 00:46:40;;;;;;;3.45;2.28;;;26.60;99.90;;;;;;4978375;28;20446;-75
2022/01/18 00:49:10;;;;;;;7.60;2.80;;;26.50;99.90;;;;;;4967088;28;20039;-76
2022/01/18 00:51:39;;;;;;;5.95;2.67;;;26.50;99.90;;;;;;4980790;28;20086;-77
2022/01/18 00:54:20;;;;;;;2.80;1.67;;;26.50;99.90;;;;;;4970969;28;20023;-75
2022/01/18 00:56:51;;;;;;;4.78;2.22;;;26.60;99.90;;;;;;4977135;28;20550;-73
2022/01/18 00:59:20;;;;;;;4.00;1.70;;;26.60;99.90;;;;;;4965689;28;20050;-76
2022/01/18 01:01:48;;;;;;;7.63;2.33;;;26.60;99.90;;;;;;4976774;28;20053;-75
2022/01/18 01:04:16;;;;;;;6.45;1.75;;;26.60;99.90;;;;;;4973723;28;20030;-74
2022/01/18 01:06:44;;;;;;;5.13;2.15;;;26.60;99.90;;;;;;4972850;28;20031;-75
2022/01/18 01:09:11;;;;;;;5.15;2.17;;;26.60;99.90;;;;;;4972887;28;20474;-76
2022/01/18 01:11:40;;;;;;;4.82;1.85;;;26.60;99.90;;;;;;4984843;28;20034;-75
2022/01/18 01:14:13;;;;;;;3.40;2.08;;;26.50;99.90;;;;;;4965819;28;20090;-75
2022/01/18 01:46:30;;;;;;;9.40;3.42;;;26.50;99.90;;;;;;4974056;28;20085;-76
2022/01/18 01:49:00;;;;;;;7.40;4.05;;;26.50;99.90;;;;;;4963964;28;20053;-75
2022/01/18 01:51:31;;;;;;;23.15;9.60;;;26.50;99.90;;;;;;4973226;28;20038;-74
2022/01/18 01:54:01;;;;;;;23.90;11.93;;;26.40;99.90;;;;;;4979509;28;20039;-74
2022/01/18 01:56:30;;;;;;;4.93;1.92;;;26.40;99.90;;;;;;4973992;28;20043;-74
2022/01/18 01:58:58;;;;;;;4.93;1.95;;;26.40;99.90;;;;;;4968625;28;20478;-74
2022/01/18 02:01:26;;;;;;;3.75;2.25;;;26.40;99.90;;;;;;4972172;28;20077;-75
2022/01/18 02:03:56;;;;;;;12.63;3.97;;;26.40;99.90;;;;;;4972477;28;20030;-74
2022/01/18 02:06:24;;;;;;;5.50;1.83;;;26.50;99.90;;;;;;4972321;28;20541;-75
2022/01/18 02:08:51;;;;;;;4.13;1.92;;;26.60;99.90;;;;;;4974147;28;20038;-76
2022/01/18 02:11:19;;;;;;;5.72;1.83;;;26.60;99.90;;;;;;4975329;28;20019;-75
2022/01/18 02:13:49;;;;;;;6.22;2.22;;;26.80;99.90;;;;;;4974220;28;20037;-76
2022/01/18 02:21:46;;;;;;;6.55;2.05;;;26.80;99.90;;;;;;4970435;28;20034;-77
2022/01/18 02:21:53;;;;;;;6.25;1.80;;;26.90;99.90;;;;;;4972981;28;20085;-75
2022/01/18 02:24:22;;;;;;;3.38;1.35;;;26.90;99.90;;;;;;4971039;28;20054;-74
2022/01/18 02:26:50;;;;;;;5.40;1.50;;;26.90;99.90;;;;;;4968128;28;20113;-74
2022/01/18 02:29:19;;;;;;;6.65;1.88;;;26.90;99.90;;;;;;4969612;28;20058;-75
2022/01/18 02:31:47;;;;;;;4.65;2.10;;;26.80;99.90;;;;;;4968470;28;20045;-76
2022/01/18 02:34:20;;;;;;;5.53;1.63;;;26.70;99.90;;;;;;4970900;28;20049;-75
2022/01/18 02:36:48;;;;;;;4.97;2.08;;;26.50;99.90;;;;;;4968797;28;20050;-73
2022/01/18 02:39:21;;;;;;;8.23;1.60;;;26.50;99.90;;;;;;4969819;28;20098;-74
2022/01/18 02:42:01;;;;;;;3.38;1.83;;;26.40;99.90;;;;;;4970866;28;20046;-75
2022/01/18 02:44:30;;;;;;;3.80;1.20;;;26.30;99.90;;;;;;4980753;28;20030;-74
2022/01/18 02:46:58;;;;;;;10.07;2.53;;;26.20;99.90;;;;;;4960308;28;20037;-75
2022/01/18 02:49:28;;;;;;;5.38;2.05;;;26.20;99.90;;;;;;4970908;28;20023;-74
2022/01/18 02:51:57;;;;;;;5.15;1.98;;;26.20;99.90;;;;;;4973802;28;20801;-73
2022/01/18 02:54:25;;;;;;;6.55;2.45;;;26.20;99.90;;;;;;4973321;28;20031;-74
2022/01/18 02:56:59;;;;;;;4.90;1.98;;;26.20;99.90;;;;;;4973489;28;20041;-73
2022/01/18 02:59:45;;;;;;;7.43;3.00;;;26.30;99.90;;;;;;4971164;28;20039;-73
2022/01/18 03:05:03;;;;;;;5.25;1.77;;;26.40;99.90;;;;;;4964816;28;19921;-73
2022/01/18 03:07:31;;;;;;;3.60;1.45;;;26.40;99.90;;;;;;4978894;28;20026;-75
2022/01/18 03:09:58;;;;;;;5.72;1.50;;;26.50;99.90;;;;;;4968890;28;20112;-74
2022/01/18 03:12:26;;;;;;;6.60;1.58;;;26.50;99.90;;;;;;4975998;28;20458;-76
2022/01/18 03:14:53;;;;;;;8.15;1.75;;;26.60;99.90;;;;;;4970804;28;20109;-73
2022/01/18 03:17:21;;;;;;;6.03;2.38;;;26.60;99.90;;;;;;4978198;28;20382;-74
2022/01/18 03:19:48;;;;;;;5.22;1.45;;;26.50;99.90;;;;;;4971602;28;20429;-74
2022/01/18 03:22:16;;;;;;;4.80;2.10;;;26.50;99.90;;;;;;4969381;28;20026;-74
2022/01/18 03:24:51;;;;;;;6.30;2.00;;;26.40;99.90;;;;;;4962817;28;20047;-74
2022/01/18 03:30:10;;;;;;;8.13;1.70;;;26.10;99.90;;;;;;4967941;28;20085;-75
2022/01/18 03:32:38;;;;;;;6.25;2.05;;;26.00;99.90;;;;;;4969344;28;20026;-75
2022/01/18 03:35:08;;;;;;;5.25;2.00;;;25.90;99.90;;;;;;4969012;28;20030;-74
2022/01/18 03:37:36;;;;;;;8.27;3.30;;;25.90;99.90;;;;;;4966619;28;20079;-74
2022/01/18 03:40:05;;;;;;;6.60;2.20;;;25.70;99.90;;;;;;4973896;28;20031;-76
2022/01/18 03:42:38;;;;;;;;;;;;;;;;;;;;;
2022/01/18 03:45:03;;;;;;;4.45;2.25;;;25.30;99.90;;;;;;4969732;28;20111;-75
2022/01/18 03:47:32;;;;;;;8.50;3.03;;;25.20;99.90;;;;;;4980540;28;20097;-75
2022/01/18 03:49:59;;;;;;;9.63;3.03;;;25.10;99.90;;;;;;4968220;28;20080;-74
2022/01/18 03:52:27;;;;;;;7.20;2.85;;;25.00;99.90;;;;;;4976895;28;20110;-76
2022/01/18 03:54:55;;;;;;;6.80;2.10;;;25.00;99.90;;;;;;4976862;28;20036;-74
2022/01/18 03:57:22;;;;;;;5.57;3.05;;;25.00;99.90;;;;;;4966976;28;20047;-75
2022/01/18 03:59:50;;;;;;;9.48;3.53;;;25.00;99.90;;;;;;4962933;28;20108;-74
2022/01/18 04:02:18;;;;;;;8.68;3.30;;;24.80;99.90;;;;;;4977163;28;20031;-74
2022/01/18 04:04:45;;;;;;;7.50;2.88;;;24.60;99.90;;;;;;4971206;28;20150;-74
2022/01/18 04:07:13;;;;;;;5.10;2.83;;;24.60;99.90;;;;;;4971865;28;20027;-73
2022/01/18 04:09:40;;;;;;;11.48;3.45;;;24.60;99.90;;;;;;4973135;28;20438;-72
2022/01/18 04:12:08;;;;;;;9.65;3.75;;;24.60;99.90;;;;;;4972972;28;20021;-73
2022/01/18 04:14:36;;;;;;;9.95;3.50;;;24.60;99.90;;;;;;4970274;28;20077;-74
2022/01/18 04:30:51;;;;;;;10.02;2.90;;;24.40;99.90;;;;;;4980992;28;20033;-74
2022/01/18 04:33:21;;;;;;;6.20;3.70;;;24.30;99.90;;;;;;4974373;28;20034;-74
2022/01/18 04:35:49;;;;;;;5.55;2.95;;;24.40;99.90;;;;;;4977806;28;20511;-75
2022/01/18 04:38:16;;;;;;;5.25;2.55;;;24.40;99.90;;;;;;4969067;28;20792;-72
2022/01/18 04:40:46;;;;;;;7.43;3.05;;;24.30;99.90;;;;;;4977420;28;20041;-72
2022/01/18 04:43:21;;;;;;;8.15;3.40;;;24.20;99.90;;;;;;4980257;28;20138;-72
2022/01/18 04:48:35;;;;;;;5.53;2.40;;;24.30;99.90;;;;;;4974926;28;20046;-73
2022/01/18 04:51:11;;;;;;;8.13;2.50;;;24.40;99.90;;;;;;4975727;28;20034;-74
2022/01/18 04:53:44;;;;;;;8.07;2.88;;;24.50;99.90;;;;;;4973095;28;21567;-76
2022/01/18 04:56:15;;;;;;;6.43;2.38;;;24.50;99.90;;;;;;4975607;28;20062;-76
2022/01/18 04:58:44;;;;;;;4.55;2.05;;;24.40;99.90;;;;;;4972417;28;20240;-74
2022/01/18 05:01:12;;;;;;;3.05;1.70;;;24.00;99.90;;;;;;4976041;28;20031;-74
2022/01/18 05:03:40;;;;;;;2.97;1.50;;;23.80;99.90;;;;;;4972225;28;20046;-75
2022/01/18 05:06:14;;;;;;;4.93;1.88;;;23.70;99.90;;;;;;4977149;28;20026;-75
2022/01/18 05:08:41;;;;;;;4.13;1.50;;;23.60;99.90;;;;;;4969334;28;20034;-77
2022/01/18 05:11:15;;;;;;;4.20;1.40;;;23.50;99.90;;;;;;4973632;28;20105;-74
2022/01/18 05:16:57;;;;;;;2.42;1.77;;;23.30;99.90;;;;;;4988676;28;20501;-76
2022/01/18 05:19:25;;;;;;;3.05;1.63;;;23.20;99.90;;;;;;4971568;28;20182;-73
2022/01/18 05:24:27;;;;;;;5.22;1.50;;;23.30;99.90;;;;;;4972553;28;20046;-73
2022/01/18 05:26:56;;;;;;;5.13;1.50;;;23.40;99.90;;;;;;4972256;28;20133;-77
2022/01/18 05:29:24;;;;;;;2.08;1.15;;;23.40;99.90;;;;;;4973427;28;20029;-76
2022/01/18 05:31:52;;;;;;;1.50;1.20;;;23.30;99.90;;;;;;4976090;28;20027;-76
2022/01/18 05:34:19;;;;;;;1.75;1.02;;;23.30;99.90;;;;;;4966948;28;20031;-74
2022/01/18 05:36:47;;;;;;;2.22;1.20;;;23.30;99.90;;;;;;4974294;28;20035;-72
2022/01/18 05:39:14;;;;;;;2.72;1.00;;;23.10;99.90;;;;;;4971662;28;20030;-76
2022/01/18 05:41:43;;;;;;;3.88;1.33;;;23.10;99.90;;;;;;4978048;28;20081;-72
2022/01/18 05:44:11;;;;;;;2.03;1.23;;;23.10;99.90;;;;;;4983050;28;20050;-73
2022/01/18 05:46:38;;;;;;;3.47;1.13;;;23.20;99.90;;;;;;4973565;28;20025;-74
2022/01/18 05:49:06;;;;;;;1.08;0.95;;;23.20;99.90;;;;;;4974412;28;20031;-73
2022/01/18 05:51:37;;;;;;;1.83;1.00;;;23.30;99.90;;;;;;4972859;28;20431;-72
2022/01/18 05:54:05;;;;;;;2.58;1.73;;;23.40;99.90;;;;;;4977116;28;20045;-74
2022/01/18 05:56:33;;;;;;;2.63;1.65;;;23.50;99.90;;;;;;4990775;28;20351;-75
2022/01/18 05:59:03;;;;;;;2.40;1.00;;;23.50;99.90;;;;;;4981698;28;20027;-74
2022/01/18 06:01:38;;;;;;;2.60;1.25;;;23.50;99.90;;;;;;4984991;28;20390;-74
2022/01/18 06:04:16;;;;;;;1.77;1.38;;;23.40;99.90;;;;;;4970139;28;20065;-74
2022/01/18 06:06:55;;;;;;;3.35;1.23;;;23.40;99.90;;;;;;4982476;28;20049;-76
2022/01/18 06:09:24;;;;;;;2.50;1.20;;;23.40;99.90;;;;;;4964127;28;20093;-75
2022/01/18 06:11:51;;;;;;;1.38;1.13;;;23.40;99.90;;;;;;4978839;28;20116;-75
2022/01/18 06:14:19;;;;;;;5.18;1.38;;;23.20;99.90;;;;;;4982411;28;20398;-74
2022/01/18 06:16:47;;;;;;;2.35;1.17;;;23.10;99.90;;;;;;4990380;28;20038;-75
2022/01/18 06:19:14;;;;;;;1.67;1.05;;;22.90;99.90;;;;;;4977739;28;20023;-74
2022/01/18 06:21:42;;;;;;;3.47;1.05;;;22.90;99.90;;;;;;4974939;28;20402;-75
2022/01/18 06:24:11;;;;;;;2.13;0.80;;;22.80;99.90;;;;;;4969956;28;20057;-76
2022/01/18 06:26:39;;;;;;;1.77;1.20;;;22.80;99.90;;;;;;4975554;28;20426;-76
2022/01/18 06:29:06;;;;;;;1.38;1.10;;;22.80;99.90;;;;;;4969952;28;20069;-75
2022/01/18 06:31:34;;;;;;;3.22;0.80;;;22.80;99.90;;;;;;4990757;28;20049;-76
2022/01/18 06:34:01;;;;;;;2.22;1.00;;;22.70;99.90;;;;;;4980904;28;20430;-74
2022/01/18 06:36:29;;;;;;;2.30;0.90;;;22.70;99.90;;;;;;4975421;28;20073;-76
2022/01/18 06:38:56;;;;;;;2.38;1.38;;;22.70;99.90;;;;;;4969705;28;20018;-75
2022/01/18 06:41:24;;;;;;;3.08;0.85;;;22.70;99.90;;;;;;4953317;28;20355;-75
2022/01/18 06:43:51;;;;;;;1.25;1.15;;;22.80;99.90;;;;;;4964392;28;20045;-74
2022/01/18 06:46:18;;;;;;;2.10;0.90;;;22.80;99.90;;;;;;4990841;28;20026;-74
2022/01/18 06:48:46;;;;;;;1.98;1.00;;;22.80;99.90;;;;;;4983124;28;20409;-74
2022/01/18 06:51:14;;;;;;;4.38;1.45;;;22.80;99.90;;;;;;4987671;28;20609;-75
2022/01/18 06:53:46;;;;;;;3.42;1.38;;;22.90;99.90;;;;;;4985528;28;20022;-75
2022/01/18 06:56:15;;;;;;;3.55;1.38;;;22.90;99.90;;;;;;4968481;28;20053;-76
2022/01/18 06:58:43;;;;;;;3.33;1.33;;;22.90;99.90;;;;;;4968845;28;20053;-73
2022/01/18 07:01:12;;;;;;;3.53;1.45;;;22.90;99.90;;;;;;4969513;28;20027;-74
2022/01/18 07:03:40;;;;;;;3.53;1.40;;;22.90;99.90;;;;;;4969618;28;20494;-75
2022/01/18 07:06:08;;;;;;;2.83;1.42;;;22.90;99.90;;;;;;4978661;28;20038;-74
2022/01/18 07:08:36;;;;;;;3.95;1.30;;;22.80;99.90;;;;;;4982849;28;20354;-74
2022/01/18 07:11:04;;;;;;;3.33;1.42;;;22.80;99.90;;;;;;4980974;28;20035;-74
2022/01/18 07:13:31;;;;;;;1.70;1.52;;;22.70;99.90;;;;;;4975901;28;20019;-74
2022/01/18 07:15:59;;;;;;;3.35;1.52;;;22.70;99.90;;;;;;4972502;28;20042;-74
2022/01/18 07:18:27;;;;;;;2.92;1.48;;;22.70;99.90;;;;;;4975623;28;20027;-75
2022/01/18 07:20:55;;;;;;;1.50;1.17;;;22.60;99.90;;;;;;4971136;28;20060;-75
2022/01/18 07:23:22;;;;;;;1.50;1.33;;;22.60;99.90;;;;;;4984005;28;20047;-77
2022/01/18 07:25:50;;;;;;;4.30;2.22;;;22.50;99.90;;;;;;4979132;28;20046;-74
2022/01/18 07:28:19;;;;;;;2.67;2.47;;;22.50;99.90;;;;;;4969243;28;20042;-75
2022/01/18 07:30:47;;;;;;;4.15;1.83;;;22.50;99.90;;;;;;4985328;28;20497;-74
2022/01/18 07:33:15;;;;;;;4.60;1.73;;;22.50;99.90;;;;;;4978652;28;20142;-75
2022/01/18 07:35:44;;;;;;;3.50;1.98;;;22.50;99.90;;;;;;4975857;28;20049;-75
2022/01/18 07:38:16;;;;;;;4.10;2.63;;;22.60;99.90;;;;;;4979127;28;20035;-75
2022/01/18 07:40:46;;;;;;;1.58;0.98;;;22.60;99.90;;;;;;4987201;28;20053;-74
2022/01/18 07:43:18;;;;;;;3.80;2.38;;;22.60;99.90;;;;;;4975376;28;20055;-73
2022/01/18 07:45:47;;;;;;;1.95;1.77;;;22.60;99.90;;;;;;4971578;28;20474;-73
2022/01/18 07:48:15;;;;;;;3.35;1.70;;;22.60;99.90;;;;;;4960742;28;20637;-74
2022/01/18 07:50:42;;;;;;;6.35;2.25;;;22.70;99.90;;;;;;4969705;28;20046;-74
2022/01/18 07:53:11;;;;;;;1.45;1.35;;;22.60;99.90;;;;;;4979618;28;20525;-72
2022/01/18 07:55:38;;;;;;;2.13;1.92;;;22.50;99.90;;;;;;4978842;28;20389;-74
2022/01/18 07:58:06;;;;;;;3.03;1.73;;;22.40;99.90;;;;;;4981568;28;20033;-74
2022/01/18 08:00:33;;;;;;;1.73;1.60;;;22.40;99.90;;;;;;4970517;28;20101;-76
2022/01/18 08:03:01;;;;;;;3.28;1.77;;;22.40;99.90;;;;;;4978007;28;20027;-75
2022/01/18 08:05:29;;;;;;;3.92;1.95;;;22.40;99.90;;;;;;4982937;28;20030;-75
2022/01/18 08:07:56;;;;;;;4.72;2.30;;;22.50;99.90;;;;;;4968158;28;20058;-72
2022/01/18 08:10:30;;;;;;;2.13;1.75;;;22.40;99.90;;;;;;4975027;28;20034;-74
2022/01/18 08:13:02;;;;;;;1.90;1.70;;;22.40;99.90;;;;;;4974113;28;20117;-72
2022/01/18 08:15:58;;;;;;;2.92;2.20;;;22.30;99.90;;;;;;4965988;28;20026;-73
2022/01/18 08:18:21;;;;;;;2.55;1.63;;;22.40;99.90;;;;;;4988246;28;20198;-73
2022/01/18 08:20:49;;;;;;;2.15;1.90;;;22.40;99.90;;;;;;4977603;28;20027;-72
2022/01/18 08:23:16;;;;;;;2.50;2.10;;;22.40;99.90;;;;;;4972124;28;20502;-73
2022/01/18 08:25:44;;;;;;;3.08;1.65;;;22.30;99.90;;;;;;4990951;28;20040;-72
2022/01/18 08:28:11;;;;;;;2.60;2.03;;;22.30;99.90;;;;;;4986566;28;20116;-72
2022/01/18 08:30:39;;;;;;;4.30;2.58;;;22.30;99.90;;;;;;4989819;28;20031;-74
2022/01/18 08:33:06;;;;;;;3.72;1.67;;;22.30;99.90;;;;;;4977657;28;20035;-72
2022/01/18 08:35:33;;;;;;;3.03;1.88;;;22.30;99.90;;;;;;4988989;28;20045;-76
2022/01/18 08:38:03;;;;;;;2.25;1.90;;;22.30;99.90;;;;;;4975307;28;20133;-76
2022/01/18 08:40:31;;;;;;;3.50;1.67;;;22.30;99.90;;;;;;4975503;28;20034;-74
2022/01/18 08:42:58;;;;;;;3.25;1.98;;;22.20;99.90;;;;;;4986418;28;20108;-74
2022/01/18 08:45:26;;;;;;;2.08;1.75;;;22.20;99.90;;;;;;4976443;28;20066;-73
2022/01/18 08:47:53;;;;;;;2.55;2.00;;;22.10;99.90;;;;;;4976796;28;20035;-72
2022/01/18 08:50:21;;;;;;;2.88;1.60;;;22.10;99.90;;;;;;4990592;28;20144;-73
2022/01/18 08:52:51;;;;;;;1.70;1.30;;;22.10;99.90;;;;;;4970514;28;20050;-73
2022/01/18 08:55:20;;;;;;;3.92;1.50;;;22.10;99.90;;;;;;4980877;28;20034;-73
2022/01/18 08:57:48;;;;;;;3.47;1.95;;;22.10;99.90;;;;;;4978970;28;20095;-74
2022/01/18 09:00:17;;;;;;;2.25;1.48;;;22.10;99.90;;;;;;4981200;28;20073;-74
2022/01/18 09:02:44;;;;;;;3.50;1.40;;;22.10;99.90;;;;;;4996790;28;20449;-73
2022/01/18 09:05:12;;;;;;;3.60;1.42;;;22.10;99.90;;;;;;4978177;28;20039;-72
2022/01/18 09:07:40;;;;;;;1.42;1.30;;;22.10;99.90;;;;;;4982784;28;20022;-73
2022/01/18 09:10:10;;;;;;;1.30;1.10;;;22.10;99.90;;;;;;4976526;28;20130;-73
2022/01/18 09:12:38;;;;;;;1.88;1.38;;;22.10;99.90;;;;;;4973822;28;20031;-73
2022/01/18 09:15:08;;;;;;;2.63;1.73;;;22.10;99.90;;;;;;4982668;28;20393;-74
2022/01/18 09:17:37;;;;;;;1.50;1.10;;;22.10;99.90;;;;;;4975345;28;20039;-73
2022/01/18 09:20:07;;;;;;;1.80;1.27;;;22.10;99.90;;;;;;4975088;28;20077;-73
2022/01/18 09:22:38;;;;;;;3.63;1.85;;;22.00;99.90;;;;;;4987287;28;20831;-73
2022/01/18 09:25:20;;;;;;;2.25;1.83;;;22.00;99.90;;;;;;4984062;28;20144;-73
2022/01/18 09:27:47;;;;;;;1.92;1.63;;;22.00;99.90;;;;;;4979395;28;20077;-73
2022/01/18 09:30:15;;;;;;;2.30;1.45;;;22.00;99.90;;;;;;4976181;28;20031;-75
2022/01/18 09:32:44;;;;;;;1.67;1.33;;;21.90;99.90;;;;;;4981186;28;20492;-74
2022/01/18 09:35:12;;;;;;;2.85;1.25;;;21.90;99.90;;;;;;4970144;28;20059;-73
2022/01/18 09:37:39;;;;;;;3.05;1.10;;;22.00;99.90;;;;;;4971159;28;20073;-75
2022/01/18 09:40:09;;;;;;;1.10;0.93;;;22.00;99.90;;;;;;4969792;28;20076;-75
2022/01/18 09:42:39;;;;;;;3.05;1.15;;;21.90;99.90;;;;;;4967497;28;20515;-75
2022/01/18 09:45:13;;;;;;;2.20;1.40;;;22.00;99.90;;;;;;4975036;28;20437;-73
2022/01/18 09:47:43;;;;;;;6.50;1.52;;;22.00;99.90;;;;;;4971111;28;20027;-73
2022/01/18 09:50:14;;;;;;;1.70;1.20;;;22.00;99.90;;;;;;4985322;28;20037;-75
2022/01/18 09:52:42;;;;;;;2.30;1.10;;;21.90;99.90;;;;;;4990872;28;20500;-75
2022/01/18 09:55:10;;;;;;;1.52;1.08;;;22.00;99.90;;;;;;4969426;28;20042;-74
2022/01/18 09:57:38;;;;;;;1.65;1.02;;;22.00;99.90;;;;;;4965260;28;20031;-74
2022/01/18 10:00:07;;;;;;;1.08;0.80;;;22.00;99.90;;;;;;4971988;28;20035;-74
2022/01/18 10:02:34;;;;;;;1.45;0.98;;;22.00;99.90;;;;;;4969352;28;20395;-73
2022/01/18 10:05:21;;;;;;;2.58;0.90;;;21.90;99.90;;;;;;4971250;28;20035;-75
2022/01/18 10:08:15;;;;;;;1.60;0.90;;;21.90;99.90;;;;;;4968144;28;20065;-72
2022/01/18 10:11:17;;;;;;;1.33;0.95;;;21.90;99.90;;;;;;4971304;28;20035;-74
2022/01/18 10:13:47;;;;;;;1.40;0.75;;;21.90;99.90;;;;;;4967737;28;20030;-73
2022/01/18 10:16:20;;;;;;;1.92;1.13;;;21.90;99.90;;;;;;4968211;28;20471;-74
2022/01/18 10:18:49;;;;;;;2.15;1.10;;;21.90;99.90;;;;;;4967704;28;20141;-72
2022/01/18 10:21:35;;;;;;;2.92;1.30;;;22.00;99.90;;;;;;4967549;28;20035;-71
2022/01/18 10:24:22;;;;;;;2.17;1.10;;;21.90;99.90;;;;;;4969433;28;20047;-74
2022/01/18 10:26:55;;;;;;;1.80;1.15;;;21.90;99.90;;;;;;4979471;28;20432;-73
2022/01/18 10:29:44;;;;;;;2.50;1.17;;;21.80;99.90;;;;;;4965565;28;20066;-73
2022/01/18 10:32:19;;;;;;;1.25;0.98;;;21.80;99.90;;;;;;4974818;28;20516;-74
2022/01/18 10:37:22;;;;;;;1.23;0.95;;;21.80;99.90;;;;;;4966382;28;20031;-75
2022/01/18 10:39:52;;;;;;;0.60;0.60;;;21.80;99.90;;;;;;4966806;28;20027;-74
2022/01/18 10:42:25;;;;;;;1.60;1.20;;;21.80;99.90;;;;;;4978149;28;20045;-73
2022/01/18 10:45:19;;;;;;;1.30;1.02;;;21.80;99.90;;;;;;4966805;28;20170;-74
2022/01/18 10:47:57;;;;;;;2.58;1.30;;;21.70;99.90;;;;;;4967342;28;20041;-74
2022/01/18 10:50:26;;;;;;;1.50;1.05;;;21.70;99.90;;;;;;4970143;28;20023;-75
2022/01/18 10:52:53;;;;;;;1.35;0.90;;;21.80;99.90;;;;;;4967479;28;20046;-75
2022/01/18 10:55:23;;;;;;;2.55;1.38;;;21.70;99.90;;;;;;4968272;28;20081;-74
2022/01/18 10:57:52;;;;;;;3.50;1.10;;;21.80;99.90;;;;;;4967347;28;20086;-75
2022/01/18 11:00:22;;;;;;;1.20;0.95;;;21.80;99.90;;;;;;4969717;28;20033;-75
2022/01/18 11:02:51;;;;;;;3.45;1.23;;;21.80;99.90;;;;;;4969178;28;20035;-74
2022/01/18 11:05:26;;;;;;;1.38;1.00;;;21.70;99.90;;;;;;4966880;28;20027;-76
2022/01/18 11:07:55;;;;;;;2.83;0.77;;;21.70;99.90;;;;;;4969781;28;20039;-74
2022/01/18 11:10:26;;;;;;;3.80;1.35;;;21.70;99.90;;;;;;4964317;28;20038;-74
2022/01/18 11:13:10;;;;;;;1.58;1.00;;;21.60;99.90;;;;;;4964971;28;20039;-72
2022/01/18 11:15:40;;;;;;;1.27;1.00;;;21.60;99.90;;;;;;4968716;28;20045;-73
2022/01/18 11:18:28;;;;;;;0.80;0.80;;;21.60;99.90;;;;;;4962828;28;20052;-73
2022/01/18 11:20:56;;;;;;;1.20;0.60;;;21.60;99.90;;;;;;4973930;28;20039;-72
2022/01/18 11:23:25;;;;;;;2.20;0.90;;;21.60;99.90;;;;;;4971497;28;20070;-72
2022/01/18 11:25:53;;;;;;;1.48;0.70;;;21.50;99.90;;;;;;4971495;28;20418;-73
2022/01/18 11:28:20;;;;;;;1.88;0.90;;;21.50;99.90;;;;;;4969540;28;20036;-73
2022/01/18 11:30:49;;;;;;;0.80;0.57;;;21.50;99.90;;;;;;4965667;28;20023;-73
2022/01/18 11:33:19;;;;;;;1.08;0.50;;;21.60;99.90;;;;;;4977551;28;20031;-75
2022/01/18 11:36:03;;;;;;;0.77;0.63;;;21.60;99.90;;;;;;4981433;28;20046;-73
2022/01/18 11:39:00;;;;;;;3.97;0.65;;;21.60;99.90;;;;;;4963072;28;21699;-73
2022/01/18 11:41:34;;;;;;;0.70;0.50;;;21.60;99.90;;;;;;4967690;28;20055;-73
2022/01/18 11:44:27;;;;;;;0.90;0.57;;;21.50;99.90;;;;;;4969067;28;20114;-73
2022/01/18 11:46:55;;;;;;;1.48;0.57;;;21.60;99.90;;;;;;4966240;28;20549;-73
2022/01/18 11:49:30;;;;;;;2.67;0.60;;;21.50;99.90;;;;;;4962729;28;20033;-73
2022/01/18 11:52:03;;;;;;;1.35;0.95;;;21.50;99.90;;;;;;4967201;28;20031;-73
2022/01/18 11:54:45;;;;;;;1.48;0.75;;;21.50;99.90;;;;;;4969271;28;20462;-73
2022/01/18 11:57:26;;;;;;;0.88;0.77;;;21.40;99.90;;;;;;4957117;28;20383;-73
2022/01/18 12:00:21;;;;;;;1.92;0.70;;;21.40;99.90;;;;;;4964903;28;20117;-74
2022/01/18 12:02:54;;;;;;;2.55;0.70;;;21.40;99.90;;;;;;4968283;28;20081;-74
2022/01/18 12:05:24;;;;;;;0.80;0.70;;;21.40;99.90;;;;;;4982582;28;20117;-74
2022/01/18 12:08:03;;;;;;;1.63;0.95;;;21.40;99.90;;;;;;4970556;28;20084;-74
2022/01/18 12:10:31;;;;;;;1.52;0.90;;;21.40;99.90;;;;;;4978288;28;20030;-74
2022/01/18 12:13:05;;;;;;;1.48;1.00;;;21.40;99.90;;;;;;4970811;28;20030;-73
2022/01/18 12:15:39;;;;;;;1.25;0.98;;;21.50;99.90;;;;;;4978621;28;20101;-74
2022/01/18 12:18:22;;;;;;;2.17;0.98;;;21.40;99.90;;;;;;4969445;28;20441;-74
2022/01/18 12:20:53;;;;;;;1.55;1.23;;;21.40;99.90;;;;;;4968072;28;20053;-73
2022/01/18 12:23:44;;;;;;;2.55;1.30;;;21.30;99.90;;;;;;4969036;28;20088;-73
2022/01/18 12:26:32;;;;;;;1.55;0.88;;;21.30;99.90;;;;;;4972368;28;20109;-74
2022/01/18 12:34:38;;;;;;;1.85;1.42;;;21.40;99.90;;;;;;4970744;28;20177;-74
2022/01/18 12:37:10;;;;;;;4.47;0.98;;;21.30;99.90;;;;;;4967946;28;20560;-74
2022/01/18 12:39:54;;;;;;;2.72;1.08;;;21.30;99.90;;;;;;4968855;28;20425;-74
2022/01/18 12:45:11;;;;;;;2.50;1.33;;;21.30;99.90;;;;;;4962022;28;20073;-73
2022/01/18 12:47:42;;;;;;;2.63;1.20;;;21.20;99.90;;;;;;4965349;28;20023;-73
2022/01/18 12:50:12;;;;;;;1.42;1.00;;;21.30;99.90;;;;;;4969108;28;20027;-73
2022/01/18 12:53:07;;;;;;;3.80;1.90;;;21.30;99.90;;;;;;4972256;28;20042;-73
2022/01/18 12:55:46;;;;;;;5.00;2.63;;;21.30;99.90;;;;;;4975062;28;20054;-73
2022/01/18 12:58:21;;;;;;;3.72;1.63;;;21.30;99.90;;;;;;4985114;28;20083;-73
2022/01/18 13:00:54;;;;;;;3.80;2.13;;;21.30;99.90;;;;;;4977873;28;20114;-71
2022/01/18 13:03:28;;;;;;;3.88;2.22;;;21.20;99.90;;;;;;4974095;28;20024;-72
2022/01/18 13:05:58;;;;;;;4.22;2.22;;;21.20;99.90;;;;;;4976754;28;20043;-73
2022/01/18 13:08:41;;;;;;;4.65;2.17;;;21.10;99.90;;;;;;4975268;28;20019;-74
2022/01/18 13:11:10;;;;;;;3.55;3.00;;;21.10;99.90;;;;;;4970476;28;20027;-73
2022/01/18 13:13:38;;;;;;;4.28;3.03;;;21.10;99.90;;;;;;4965550;28;20031;-72
2022/01/18 13:27:29;;;;;;;8.43;4.00;;;21.10;99.90;;;;;;4975250;28;20523;-74
2022/01/18 13:30:27;;;;;;;6.15;3.88;;;21.20;99.90;;;;;;4978170;28;20034;-74
2022/01/18 13:32:58;;;;;;;7.85;5.18;;;21.20;99.90;;;;;;4970372;28;20385;-74
2022/01/18 13:35:30;;;;;;;6.05;4.13;;;21.20;99.90;;;;;;4969290;28;20489;-76
2022/01/18 13:38:00;;;;;;;9.30;4.43;;;21.20;99.90;;;;;;4970993;28;20031;-73
2022/01/18 13:40:30;;;;;;;5.05;3.65;;;21.10;99.90;;;;;;4968425;28;20037;-74
2022/01/18 13:43:12;;;;;;;4.72;3.65;;;21.00;99.90;;;;;;4964773;28;20023;-72
2022/01/18 13:45:43;;;;;;;4.93;3.33;;;21.00;99.90;;;;;;4969148;28;20038;-76
2022/01/18 13:48:14;;;;;;;4.28;3.35;;;20.90;99.90;;;;;;4971718;28;20027;-74
2022/01/18 13:50:58;;;;;;;11.55;3.97;;;20.90;99.90;;;;;;4969744;28;20041;-74
2022/01/18 13:53:34;;;;;;;5.60;3.70;;;20.80;99.90;;;;;;4969860;28;20451;-73
2022/01/18 13:56:09;;;;;;;9.60;4.20;;;20.80;99.90;;;;;;4972005;28;20371;-72
2022/01/18 13:58:39;;;;;;;9.18;3.97;;;20.80;99.90;;;;;;4980796;28;20022;-74
2022/01/18 14:01:14;;;;;;;5.32;3.22;;;20.80;99.90;;;;;;4970495;28;20395;-73
2022/01/18 14:03:44;;;;;;;4.13;3.17;;;20.80;99.90;;;;;;4971251;28;20401;-75
2022/01/18 14:06:14;;;;;;;4.00;3.08;;;20.80;99.90;;;;;;4972836;28;20031;-74
2022/01/18 14:08:48;;;;;;;6.43;3.20;;;20.80;99.90;;;;;;4970620;28;20074;-75
2022/01/18 14:11:20;;;;;;;3.25;2.63;;;20.80;99.90;;;;;;4971390;28;20030;-74
2022/01/18 14:13:48;;;;;;;3.35;3.03;;;20.80;99.90;;;;;;4967469;28;20441;-74
2022/01/18 14:16:29;;;;;;;5.47;2.47;;;20.80;99.90;;;;;;4966338;28;20509;-76
2022/01/18 14:19:01;;;;;;;4.35;2.08;;;20.80;99.90;;;;;;4966406;28;20026;-76
2022/01/18 14:21:38;;;;;;;6.43;1.65;;;20.80;99.90;;;;;;4971688;28;20030;-75
2022/01/18 14:24:11;;;;;;;7.25;2.72;;;20.70;99.90;;;;;;4978496;28;20059;-74
2022/01/18 14:27:00;;;;;;;4.00;2.22;;;20.70;99.90;;;;;;4971615;28;20043;-74
2022/01/18 14:29:42;;;;;;;2.83;1.88;;;20.70;99.90;;;;;;4969606;28;20097;-75
2022/01/18 14:32:11;;;;;;;3.30;2.17;;;20.70;99.90;;;;;;4970475;28;20019;-75
2022/01/18 14:34:44;;;;;;;4.25;1.90;;;20.70;99.90;;;;;;4973739;28;20109;-75